Time;durP1;ratioP1;P1;durP2;ratioP2;P2;SDS_P1;SDS_P2;PMS_P1;PMS_P2;Temp;Humidity;BMP_temperature;BMP_pressure;BME280_temperature;BME280_humidity;BME280_pressure;Samples;Min_cycle;Max_cycle;Signal;HPM_P1;HPM_P2
2022/06/30 00:00:14;;;;;;;1999.90;999.90;;;;;;;18.96;100.00;91280.16;5033047;28;20277;-58
2022/06/30 00:02:39;;;;;;;1999.90;999.90;;;;;;;18.91;100.00;91267.28;5032817;28;20193;-57
2022/06/30 00:05:05;;;;;;;1999.90;999.90;;;;;;;18.89;100.00;91244.97;5033999;28;20277;-58
2022/06/30 00:07:31;;;;;;;1999.90;999.90;;;;;;;18.87;100.00;91239.28;5033945;28;20187;-58
2022/06/30 00:09:56;;;;;;;1999.90;999.90;;;;;;;18.85;100.00;91241.84;5032834;28;20184;-52
2022/06/30 00:12:21;;;;;;;1999.90;999.90;;;;;;;18.82;100.00;91240.19;5033376;28;20186;-59
2022/06/30 00:14:47;;;;;;;1999.90;999.90;;;;;;;18.77;100.00;91228.06;5032957;28;20190;-59
2022/06/30 00:17:12;;;;;;;1999.90;999.90;;;;;;;18.79;100.00;91216.41;5032947;28;20183;-61
2022/06/30 00:19:38;;;;;;;1999.90;999.90;;;;;;;18.76;100.00;91228.63;5032451;28;20218;-60
2022/06/30 00:22:07;;;;;;;1999.90;999.90;;;;;;;18.74;100.00;91220.88;5032521;28;20214;-60
2022/06/30 00:24:34;;;;;;;1999.90;999.90;;;;;;;18.72;100.00;91225.50;5032649;28;20281;-59
2022/06/30 00:26:59;;;;;;;1999.90;999.90;;;;;;;18.74;100.00;91211.84;5031769;28;20197;-61
2022/06/30 00:29:24;;;;;;;1999.90;999.90;;;;;;;18.72;100.00;91234.50;5033139;28;20190;-55
2022/06/30 00:31:50;;;;;;;1999.90;999.90;;;;;;;18.71;100.00;91248.88;5032820;28;20186;-69
2022/06/30 00:34:15;;;;;;;1999.90;999.90;;;;;;;18.68;100.00;91272.84;5032475;28;20194;-70
2022/06/30 00:36:41;;;;;;;1999.90;999.90;;;;;;;18.68;100.00;91277.63;5032612;28;20198;-68
2022/06/30 00:39:06;;;;;;;1999.90;999.90;;;;;;;18.68;100.00;91285.94;5032238;28;20210;-69
2022/06/30 00:41:32;;;;;;;1999.90;999.90;;;;;;;18.65;100.00;91290.53;5032501;28;20278;-68
2022/06/30 00:43:57;;;;;;;1999.90;999.90;;;;;;;18.64;100.00;91296.63;5032501;28;20190;-67
2022/06/30 00:46:22;;;;;;;1999.90;999.90;;;;;;;18.64;100.00;91304.91;5032182;28;20251;-60
2022/06/30 00:48:48;;;;;;;1999.90;999.90;;;;;;;18.59;100.00;91303.09;5033066;28;20189;-59
2022/06/30 00:51:14;;;;;;;1999.90;999.90;;;;;;;18.58;100.00;91315.44;5032107;28;20198;-60
2022/06/30 00:53:41;;;;;;;1999.90;999.90;;;;;;;18.56;100.00;91315.25;5032538;28;20229;-60
2022/06/30 00:56:09;;;;;;;1999.90;999.90;;;;;;;18.54;100.00;91334.41;5032111;28;20281;-60
2022/06/30 00:58:44;;;;;;;1999.90;999.90;;;;;;;18.53;100.00;91339.19;5032604;28;20209;-60
2022/06/30 01:01:12;;;;;;;1999.90;999.90;;;;;;;18.50;100.00;91345.09;5032783;28;20194;-59
2022/06/30 01:03:38;;;;;;;1999.90;999.90;;;;;;;18.47;100.00;91344.16;5032417;28;20186;-59
2022/06/30 01:06:05;;;;;;;1999.90;999.90;;;;;;;18.44;100.00;91350.06;5032104;28;20251;-54
2022/06/30 01:08:32;;;;;;;1999.90;999.90;;;;;;;18.38;100.00;91349.50;5032460;28;20218;-53
2022/06/30 01:13:43;;;;;;;1999.90;999.90;;;;;;;18.29;100.00;91341.75;5033592;28;20194;-54
2022/06/30 01:16:11;;;;;;;1999.90;999.90;;;;;;;18.26;100.00;91345.59;5031759;28;20221;-55
2022/06/30 01:18:36;;;;;;;1999.90;999.90;;;;;;;18.23;100.00;91339.16;5032530;28;20215;-55
2022/06/30 01:21:02;;;;;;;1999.90;999.90;;;;;;;18.23;100.00;91383.34;5032109;28;20194;-51
2022/06/30 01:23:28;;;;;;;1999.90;999.90;;;;;;;18.19;100.00;91387.75;5032099;28;20206;-67
2022/06/30 01:25:56;;;;;;;1999.90;999.90;;;;;;;18.20;100.00;91378.91;5031793;28;20194;-63
2022/06/30 01:28:22;;;;;;;1999.90;999.90;;;;;;;18.17;100.00;91390.34;5031852;28;20190;-64
2022/06/30 01:30:47;;;;;;;1999.90;999.90;;;;;;;18.13;100.00;91403.75;5032022;28;20193;-64
2022/06/30 01:33:13;;;;;;;1999.90;999.90;;;;;;;18.10;100.00;91402.81;5031873;28;20183;-65
2022/06/30 01:35:38;;;;;;;1999.90;999.90;;;;;;;18.09;100.00;91406.13;5031761;28;20205;-65
2022/06/30 01:38:05;;;;;;;1999.90;999.90;;;;;;;18.08;100.00;91393.63;5033694;28;20222;-63
2022/06/30 01:40:36;;;;;;;1999.90;999.90;;;;;;;18.05;100.00;91391.94;5035166;28;20178;-68
2022/06/30 01:43:05;;;;;;;1999.90;999.90;;;;;;;18.07;100.00;91397.69;5035314;28;20252;-50
2022/06/30 01:45:31;;;;;;;1999.90;999.90;;;;;;;18.06;100.00;91407.25;5035019;28;20198;-68
2022/06/30 01:47:56;;;;;;;1999.90;999.90;;;;;;;18.04;100.00;91409.81;5035098;28;20182;-67
2022/06/30 01:50:30;;;;;;;1999.90;999.90;;;;;;;18.01;100.00;91394.34;5035395;28;20182;-68
2022/06/30 01:52:56;;;;;;;1999.90;999.90;;;;;;;17.97;100.00;91410.53;5035455;28;20186;-67
2022/06/30 01:55:22;;;;;;;1999.90;999.90;;;;;;;17.97;100.00;91408.50;5035236;28;20267;-68
2022/06/30 01:57:48;;;;;;;1999.90;999.90;;;;;;;17.92;100.00;91403.16;5034896;28;20234;-67
2022/06/30 02:00:16;;;;;;;1999.90;999.90;;;;;;;17.87;100.00;91404.78;5034675;28;20340;-62
2022/06/30 02:02:43;;;;;;;1999.90;999.90;;;;;;;17.83;100.00;91407.16;5035005;28;20189;-50
2022/06/30 02:05:11;;;;;;;1999.90;999.90;;;;;;;17.76;100.00;91404.38;5035592;28;20236;-46
2022/06/30 02:07:40;;;;;;;1999.90;999.90;;;;;;;17.67;100.00;91405.63;5035151;28;20228;-47
2022/06/30 02:10:11;;;;;;;1999.90;999.90;;;;;;;17.66;100.00;91397.91;5034636;28;20182;-44
2022/06/30 02:12:46;;;;;;;1999.90;999.90;;;;;;;17.60;100.00;91389.03;5035216;28;20191;-48
2022/06/30 02:15:36;;;;;;;1999.90;999.90;;;;;;;17.56;100.00;91388.66;5034687;28;20186;-45
2022/06/30 02:18:08;;;;;;;1999.90;999.90;;;;;;;17.55;100.00;91384.44;5034369;28;20238;-62
2022/06/30 02:20:34;;;;;;;1999.90;999.90;;;;;;;17.58;100.00;91377.81;5034710;28;20190;-63
2022/06/30 02:23:01;;;;;;;1999.90;999.90;;;;;;;17.62;100.00;91367.16;5034585;28;20186;-61
2022/06/30 02:25:29;;;;;;;1999.90;999.90;;;;;;;17.61;100.00;91371.94;5034686;28;20260;-60
2022/06/30 02:27:55;;;;;;;1999.90;999.90;;;;;;;17.58;100.00;91380.56;5034400;28;20240;-61
2022/06/30 02:30:21;;;;;;;1999.90;999.90;;;;;;;17.55;100.00;91404.47;5034425;28;20182;-60
2022/06/30 02:32:47;;;;;;;1999.90;999.90;;;;;;;17.53;100.00;91409.06;5034205;28;20225;-60
2022/06/30 02:35:15;;;;;;;1999.90;999.90;;;;;;;17.53;100.00;91423.59;5035584;28;20194;-60
2022/06/30 02:37:41;;;;;;;1999.90;999.90;;;;;;;17.56;100.00;91416.25;5050747;28;20227;-45
2022/06/30 02:40:07;;;;;;;1999.90;999.90;;;;;;;17.54;100.00;91400.25;5034135;28;20281;-58
2022/06/30 02:42:33;;;;;;;1999.90;999.90;;;;;;;17.53;100.00;91400.78;5035194;28;20174;-57
2022/06/30 02:44:59;;;;;;;1999.90;999.90;;;;;;;17.50;100.00;91401.88;5034253;28;20190;-57
2022/06/30 02:47:36;;;;;;;1999.90;999.90;;;;;;;17.44;100.00;91415.09;5034115;28;20174;-57
2022/06/30 02:50:03;;;;;;;1999.90;999.90;;;;;;;17.38;100.00;91408.97;5033643;28;20179;-58
2022/06/30 02:52:32;;;;;;;1999.90;999.90;;;;;;;17.37;100.00;91413.72;5034469;28;20174;-57
2022/06/30 02:54:59;;;;;;;1999.90;999.90;;;;;;;17.34;100.00;91416.84;5034291;28;20189;-45
2022/06/30 02:57:24;;;;;;;1999.90;999.90;;;;;;;17.33;100.00;91415.38;5033859;28;20179;-58
2022/06/30 02:59:50;;;;;;;1999.90;999.90;;;;;;;17.31;100.00;91417.91;5033788;28;20297;-58
2022/06/30 03:02:16;;;;;;;1999.90;999.90;;;;;;;17.28;100.00;91414.25;5033967;28;20209;-58
2022/06/30 03:04:44;;;;;;;1999.90;999.90;;;;;;;17.26;100.00;91405.75;5034287;28;20198;-58
2022/06/30 03:07:09;;;;;;;1999.90;999.90;;;;;;;17.28;100.00;91403.22;5034127;28;20221;-58
2022/06/30 03:09:35;;;;;;;1999.90;999.90;;;;;;;17.29;100.00;91403.94;5034851;28;20338;-58
2022/06/30 03:12:00;;;;;;;1999.90;999.90;;;;;;;17.31;100.00;91401.38;5034063;28;20189;-58
2022/06/30 03:14:26;;;;;;;1999.90;999.90;;;;;;;17.30;100.00;91400.63;5034087;28;20344;-66
2022/06/30 03:16:52;;;;;;;1999.90;999.90;;;;;;;17.26;100.00;91403.00;5033723;28;20186;-65
2022/06/30 03:19:17;;;;;;;1999.90;999.90;;;;;;;17.23;100.00;91422.66;5033782;28;20341;-65
2022/06/30 03:21:43;;;;;;;1999.90;999.90;;;;;;;17.17;100.00;91411.03;5033506;28;20244;-65
2022/06/30 03:24:09;;;;;;;1999.90;999.90;;;;;;;17.15;100.00;91399.81;5033854;28;20185;-65
2022/06/30 03:26:36;;;;;;;1999.90;999.90;;;;;;;17.13;100.00;91380.31;5033380;28;20256;-65
2022/06/30 03:29:02;;;;;;;1999.90;999.90;;;;;;;17.13;100.00;91383.06;5033572;28;20195;-66
2022/06/30 03:31:27;;;;;;;1999.90;999.90;;;;;;;17.16;100.00;91366.19;5033822;28;20187;-52
2022/06/30 03:33:52;;;;;;;1999.90;999.90;;;;;;;17.18;100.00;91360.09;5033375;28;20201;-46
2022/06/30 03:36:18;;;;;;;1999.90;999.90;;;;;;;17.22;100.00;91371.56;5033123;28;20191;-53
2022/06/30 03:38:43;;;;;;;1999.90;999.90;;;;;;;17.23;100.00;91368.22;5032966;28;20225;-54
2022/06/30 03:41:08;;;;;;;1999.90;999.90;;;;;;;17.31;100.00;91369.03;5033491;28;20377;-52
2022/06/30 03:43:34;;;;;;;1999.90;999.90;;;;;;;17.41;100.00;91349.94;5033327;28;20186;-55
2022/06/30 03:46:00;;;;;;;1999.90;999.90;;;;;;;17.55;100.00;91343.03;5033287;28;20244;-56
2022/06/30 03:48:25;;;;;;;1999.90;999.90;;;;;;;17.72;100.00;91346.03;5033051;28;20202;-56
2022/06/30 03:50:50;;;;;;;1999.90;999.90;;;;;;;17.80;100.00;91369.63;5032990;28;20190;-55
2022/06/30 03:53:16;;;;;;;1999.90;999.90;;;;;;;17.86;100.00;91402.56;5033214;28;20174;-56
2022/06/30 03:55:41;;;;;;;1999.90;999.90;;;;;;;17.89;100.00;91442.88;5033237;28;20248;-56
2022/06/30 03:58:08;;;;;;;1999.90;999.90;;;;;;;18.07;100.00;91447.38;5033470;28;20205;-54
2022/06/30 04:00:34;;;;;;;1999.90;999.90;;;;;;;18.20;100.00;91470.06;5032043;28;20244;-51
2022/06/30 04:03:03;;;;;;;1999.90;999.90;;;;;;;18.28;100.00;91533.63;5032878;28;20198;-53
2022/06/30 04:05:28;;;;;;;1999.90;999.90;;;;;;;18.49;100.00;91570.94;5032794;28;20194;-53
2022/06/30 04:07:54;;;;;;;1999.90;999.90;;;;;;;18.86;100.00;91575.09;5032990;28;20190;-58
2022/06/30 04:10:22;;;;;;;1999.90;999.90;;;;;;;19.29;100.00;91627.63;5032806;28;20201;-64
2022/06/30 04:12:47;;;;;;;1999.90;999.90;;;;;;;19.79;100.00;91684.16;5032740;28;20198;-68
2022/06/30 04:15:13;;;;;;;1999.90;999.90;;;;;;;20.07;100.00;91812.16;5032966;28;20191;-68
2022/06/30 04:17:38;;;;;;;1999.90;999.90;;;;;;;20.24;100.00;91953.75;5032733;28;20186;-68
2022/06/30 04:20:06;;;;;;;1999.90;999.90;;;;;;;20.56;100.00;92040.00;5032681;28;20201;-69
2022/06/30 04:22:32;;;;;;;1999.90;999.90;;;;;;;21.01;100.00;92131.00;5032543;28;20281;-67
2022/06/30 04:24:57;;;;;;;1999.90;999.90;;;;;;;21.27;100.00;92233.44;5033126;28;20226;-68
2022/06/30 04:27:25;;;;;;;1999.90;999.90;;;;;;;21.55;100.00;92319.47;5032910;28;20221;-58
2022/06/30 04:29:50;;;;;;;1999.90;999.90;;;;;;;21.81;100.00;92420.00;5032520;28;20178;-53
2022/06/30 04:35:00;;;;;;;1999.90;999.90;;;;;;;22.37;100.00;92606.22;5034189;28;20189;-55
2022/06/30 04:37:25;;;;;;;1999.90;999.90;;;;;;;22.35;100.00;92681.16;5032585;28;20182;-53
2022/06/30 04:41:23;;;;;;;1999.90;999.90;;;;;;;22.52;100.00;92705.03;5032419;28;20210;-54
2022/06/30 04:42:36;;;;;;;1999.90;999.90;;;;;;;22.67;100.00;92760.78;5033520;28;20190;-54
2022/06/30 04:45:01;;;;;;;1999.90;999.90;;;;;;;22.81;100.00;92809.50;5032930;28;20187;-56
2022/06/30 04:47:26;;;;;;;1999.90;999.90;;;;;;;23.01;100.00;92839.38;5032759;28;20324;-57
2022/06/30 04:49:52;;;;;;;1999.90;999.90;;;;;;;23.21;100.00;92877.59;5032703;28;20202;-45
2022/06/30 04:52:17;;;;;;;1999.90;999.90;;;;;;;23.51;100.00;92927.97;5032559;28;20198;-45
2022/06/30 04:54:42;;;;;;;1999.90;999.90;;;;;;;23.86;100.00;92978.22;5031925;28;20201;-46
2022/06/30 04:57:08;;;;;;;1999.90;999.90;;;;;;;23.89;100.00;93026.59;5032165;28;20285;-50
2022/06/30 04:59:33;;;;;;;1999.90;999.90;;;;;;;24.22;100.00;93048.03;5032239;28;20245;-48
2022/06/30 05:01:58;;;;;;;1999.90;999.90;;;;;;;25.03;100.00;93124.44;5033232;28;20194;-47
2022/06/30 05:04:24;;;;;;;1999.90;999.90;;;;;;;25.45;100.00;93264.78;5032122;28;20245;-61
2022/06/30 05:06:49;;;;;;;1999.90;999.90;;;;;;;25.42;100.00;93356.09;5032100;28;20230;-60
2022/06/30 05:09:14;;;;;;;1999.90;999.90;;;;;;;25.49;100.00;93382.63;5032006;28;20198;-60
2022/06/30 05:11:40;;;;;;;1999.90;999.90;;;;;;;25.30;100.00;93416.38;5032101;28;20213;-60
2022/06/30 05:14:05;;;;;;;1999.90;999.90;;;;;;;25.51;100.00;93400.34;5035329;28;20192;-60
2022/06/30 05:16:31;;;;;;;1999.90;999.90;;;;;;;25.80;100.00;93463.38;5035239;28;20256;-60
2022/06/30 05:18:56;;;;;;;1999.90;999.90;;;;;;;25.92;100.00;93520.53;5035926;28;20224;-61
2022/06/30 05:21:21;;;;;;;1999.90;999.90;;;;;;;25.97;100.00;93518.94;5035448;28;20194;-51
2022/06/30 05:26:28;;;;;;;1999.90;999.90;;;;;;;26.42;100.00;93572.41;5035069;28;20195;-59
2022/06/30 05:26:33;;;;;;;1999.90;999.90;;;;;;;26.99;100.00;93636.28;5036242;28;20182;-62
2022/06/30 05:28:59;;;;;;;1999.90;999.90;;;;;;;27.49;100.00;93693.75;5035382;28;20190;-62
2022/06/30 05:31:24;;;;;;;1999.90;999.90;;;;;;;27.85;100.00;93787.88;5035155;28;20186;-62
2022/06/30 05:33:49;;;;;;;1999.90;999.90;;;;;;;28.38;100.00;93843.47;5034997;28;20217;-62
2022/06/30 05:36:15;;;;;;;1999.90;999.90;;;;;;;27.85;100.00;93872.09;5034899;28;20194;-62
2022/06/30 05:38:40;;;;;;;1999.90;999.90;;;;;;;27.54;100.00;93856.31;5035280;28;20304;-62
2022/06/30 05:41:05;;;;;;;1999.90;999.90;;;;;;;27.56;100.00;93848.13;5034905;28;20179;-52
2022/06/30 05:43:31;;;;;;;1999.90;999.90;;;;;;;27.47;100.00;93871.06;5034857;28;20209;-54
2022/06/30 05:45:56;;;;;;;1999.90;999.90;;;;;;;27.84;100.00;93876.19;5034664;28;20250;-51
2022/06/30 05:48:21;;;;;;;1999.90;999.90;;;;;;;28.02;100.00;94032.44;5035428;28;20182;-52
2022/06/30 05:50:47;;;;;;;1999.90;999.90;;;;;;;28.97;100.00;94241.47;5051881;28;20194;-52
2022/06/30 05:53:13;;;;;;;1999.90;999.90;;;;;;;29.67;100.00;94425.91;5034771;28;20217;-52
2022/06/30 05:55:38;;;;;;;1999.90;999.90;;;;;;;29.41;100.00;94623.06;5034813;28;20187;-54
2022/06/30 05:58:04;;;;;;;1999.90;999.90;;;;;;;28.84;100.00;94688.69;5034756;28;20276;-70
2022/06/30 06:00:30;;;;;;;1999.90;999.90;;;;;;;29.04;100.00;94741.50;5034786;28;20198;-58
2022/06/30 06:02:56;;;;;;;1999.90;999.90;;;;;;;29.28;100.00;94761.00;5034744;28;20235;-61
2022/06/30 06:05:22;;;;;;;1999.90;999.90;;;;;;;29.56;100.00;94770.41;5034498;28;20246;-62
2022/06/30 06:07:48;;;;;;;1999.90;999.90;;;;;;;30.36;100.00;94809.19;5034500;28;20183;-62
2022/06/30 06:10:14;;;;;;;1999.90;999.90;;;;;;;30.70;100.00;94836.09;5034404;28;20188;-62
2022/06/30 06:12:42;;;;;;;1999.90;999.90;;;;;;;30.77;100.00;94834.66;5034787;28;20213;-61
2022/06/30 06:15:09;;;;;;;1999.90;999.90;;;;;;;31.47;97.06;94858.81;5034317;28;20193;-62
2022/06/30 06:17:46;;;;;;;1999.90;999.90;;;;;;;31.53;90.90;94882.00;5034682;28;20183;-57
2022/06/30 06:20:12;;;;;;;1999.90;999.90;;;;;;;32.34;87.05;94897.25;5034116;28;20186;-63
2022/06/30 06:22:39;;;;;;;1999.90;999.90;;;;;;;32.03;83.82;94901.22;5034497;28;20205;-63
2022/06/30 06:25:05;;;;;;;1999.90;999.90;;;;;;;31.92;86.58;94887.41;5033322;28;20248;-63
2022/06/30 06:27:30;;;;;;;1999.90;999.90;;;;;;;32.22;83.69;94907.34;5034177;28;20178;-63
2022/06/30 06:29:55;;;;;;;1999.90;999.90;;;;;;;32.19;83.75;94911.28;5034107;28;20246;-62
2022/06/30 06:32:22;;;;;;;1999.90;999.90;;;;;;;32.08;83.62;94905.94;5034230;28;20182;-63
2022/06/30 06:34:48;;;;;;;1999.90;999.90;;;;;;;32.83;76.90;94948.81;5034135;28;20186;-52
2022/06/30 06:37:13;;;;;;;1999.90;999.90;;;;;;;32.91;77.63;94941.09;5034220;28;20187;-69
2022/06/30 06:39:38;;;;;;;1999.90;999.90;;;;;;;32.92;76.40;94941.84;5033819;28;20214;-51
2022/06/30 06:42:04;;;;;;;1999.90;999.90;;;;;;;33.00;74.54;94951.84;5034239;28;20179;-50
2022/06/30 06:44:29;;;;;;;1999.90;999.90;;;;;;;32.84;76.72;94941.81;5034479;28;20188;-51
2022/06/30 06:46:55;;;;;;;1999.90;999.90;;;;;;;32.97;75.03;94950.16;5034552;28;20186;-53
2022/06/30 06:49:23;;;;;;;1999.90;999.90;;;;;;;33.24;73.43;94953.44;5034224;28;20193;-52
2022/06/30 06:51:48;;;;;;;1999.90;999.90;;;;;;;33.00;72.48;94957.53;5034392;28;20182;-54
2022/06/30 06:54:14;;;;;;;1999.90;999.90;;;;;;;33.51;72.60;94951.81;5034048;28;20193;-50
2022/06/30 06:56:39;;;;;;;1999.90;999.90;;;;;;;33.47;70.79;94960.66;5034249;28;20270;-57
2022/06/30 06:59:04;;;;;;;1999.90;999.90;;;;;;;33.18;70.82;94962.09;5033637;28;20206;-61
2022/06/30 07:01:33;;;;;;;1999.90;999.90;;;;;;;33.65;70.42;94965.22;5033835;28;20209;-57
2022/06/30 07:03:58;;;;;;;1999.90;999.90;;;;;;;33.61;66.02;94973.34;5033670;28;20186;-58
2022/06/30 07:06:24;;;;;;;1999.90;999.90;;;;;;;33.66;64.20;94977.31;5033451;28;20183;-57
2022/06/30 07:08:49;;;;;;;1999.90;999.90;;;;;;;33.88;64.30;94973.00;5033697;28;20240;-57
2022/06/30 07:11:15;;;;;;;1999.90;999.90;;;;;;;34.56;63.67;94973.69;5033891;28;20194;-59
2022/06/30 07:13:40;;;;;;;1999.90;999.90;;;;;;;34.95;61.60;94990.06;5033178;28;20183;-62
2022/06/30 07:16:05;;;;;;;1999.90;999.90;;;;;;;35.44;58.75;94984.53;5034448;28;20182;-60
2022/06/30 07:18:31;;;;;;;1999.90;999.90;;;;;;;34.93;58.13;94975.66;5033495;28;20202;-59
2022/06/30 07:20:56;;;;;;;1999.90;999.90;;;;;;;33.92;61.89;94984.72;5033445;28;20194;-59
2022/06/30 07:23:22;;;;;;;1999.90;999.90;;;;;;;35.70;55.56;94983.97;5033776;28;20190;-60
2022/06/30 07:25:47;;;;;;;1999.90;999.90;;;;;;;37.09;50.88;94983.03;5033397;28;20192;-59
2022/06/30 07:28:13;;;;;;;1999.90;999.90;;;;;;;35.77;50.36;94983.19;5034344;28;20179;-60
2022/06/30 07:30:38;;;;;;;1999.90;999.90;;;;;;;35.71;53.30;94974.09;5033322;28;20194;-60
2022/06/30 07:33:04;;;;;;;1999.90;999.90;;;;;;;35.65;52.36;94976.44;5033678;28;20182;-62
2022/06/30 07:35:29;;;;;;;1999.90;999.90;;;;;;;36.83;50.83;94980.88;5033034;28;20209;-62
2022/06/30 07:37:55;;;;;;;1999.90;999.90;;;;;;;36.75;47.46;94985.91;5033141;28;20186;-62
2022/06/30 07:40:20;;;;;;;1999.90;999.90;;;;;;;36.03;49.64;94976.91;5033511;28;20187;-63
2022/06/30 07:42:47;;;;;;;1999.90;999.90;;;;;;;36.27;48.17;94984.69;5032909;28;20187;-63
2022/06/30 07:45:13;;;;;;;1999.90;999.90;;;;;;;36.44;49.31;94979.00;5033010;28;20184;-63
2022/06/30 07:47:39;;;;;;;1999.90;999.90;;;;;;;34.95;53.52;94984.38;5033652;28;20265;-62
2022/06/30 07:50:05;;;;;;;1999.90;999.90;;;;;;;35.86;53.35;94979.69;5049652;28;20187;-73
2022/06/30 07:52:33;;;;;;;1999.90;999.90;;;;;;;34.72;55.35;94984.44;5033025;28;20206;-62
2022/06/30 07:54:59;;;;;;;1999.90;999.90;;;;;;;34.31;57.46;94978.44;5033046;28;20182;-62
2022/06/30 07:57:26;;;;;;;1999.90;999.90;;;;;;;34.27;58.06;94975.25;5032929;28;20201;-63
2022/06/30 07:59:52;;;;;;;1999.90;999.90;;;;;;;34.92;58.76;94974.91;5032982;28;20237;-62
2022/06/30 08:02:17;;;;;;;1999.90;999.90;;;;;;;33.52;61.88;94971.09;5032745;28;20276;-63
2022/06/30 08:04:45;;;;;;;1999.90;999.90;;;;;;;34.42;58.64;94975.25;5032876;28;20269;-63
2022/06/30 08:07:11;;;;;;;1999.90;999.90;;;;;;;35.07;57.35;94968.41;5032917;28;20213;-56
2022/06/30 08:09:36;;;;;;;1999.90;999.90;;;;;;;35.97;53.07;94976.38;5032781;28;20246;-55
2022/06/30 08:12:03;;;;;;;1999.90;999.90;;;;;;;36.05;54.51;94969.28;5032232;28;20193;-62
2022/06/30 08:14:31;;;;;;;1999.90;999.90;;;;;;;36.36;51.56;94964.88;5033903;28;20171;-63
2022/06/30 08:16:57;;;;;;;1999.90;999.90;;;;;;;36.47;52.75;94969.28;5032923;28;20197;-63
2022/06/30 08:19:22;;;;;;;1999.90;999.90;;;;;;;35.40;55.24;94981.31;5032782;28;20218;-63
2022/06/30 08:21:47;;;;;;;1999.90;999.90;;;;;;;35.44;53.44;94979.59;5032727;28;20182;-63
2022/06/30 08:24:14;;;;;;;1999.90;999.90;;;;;;;35.64;53.47;94975.66;5032534;28;20190;-63
2022/06/30 08:26:39;;;;;;;1999.90;999.90;;;;;;;34.95;56.91;94967.34;5032519;28;20197;-60
2022/06/30 08:29:05;;;;;;;1999.90;999.90;;;;;;;36.09;53.75;94957.50;5032713;28;20258;-49
2022/06/30 08:31:31;;;;;;;1999.90;999.90;;;;;;;35.39;53.14;94960.66;5032359;28;20178;-52
2022/06/30 08:33:56;;;;;;;1999.90;999.90;;;;;;;35.37;53.33;94959.75;5032578;28;20178;-51
2022/06/30 08:36:22;;;;;;;1999.90;999.90;;;;;;;35.38;54.26;94953.47;5032247;28;20183;-50
2022/06/30 08:38:48;;;;;;;1999.90;999.90;;;;;;;36.14;52.32;94951.56;5032170;28;20225;-49
2022/06/30 08:44:00;;;;;;;1999.90;999.90;;;;;;;36.28;51.43;94941.41;5033783;28;20240;-50
2022/06/30 08:46:27;;;;;;;1999.90;999.90;;;;;;;36.46;48.55;94945.03;5033253;28;20182;-58
2022/06/30 08:48:56;;;;;;;1999.90;999.90;;;;;;;35.63;50.49;94944.97;5035671;28;20189;-57
2022/06/30 08:51:21;;;;;;;1999.90;999.90;;;;;;;34.06;56.85;94949.19;5052092;28;20191;-55
2022/06/30 08:53:51;;;;;;;1999.90;999.90;;;;;;;35.34;53.94;94943.84;5035754;28;20209;-56
2022/06/30 08:56:20;;;;;;;1999.90;999.90;;;;;;;36.92;50.60;94946.00;5036031;28;20197;-56
2022/06/30 08:58:49;;;;;;;1999.90;999.90;;;;;;;36.32;49.83;94941.75;5035395;28;20249;-57
2022/06/30 09:01:14;;;;;;;1999.90;999.90;;;;;;;34.41;58.02;94937.59;5035650;28;20209;-57
2022/06/30 09:03:39;;;;;;;1999.90;999.90;;;;;;;35.58;54.47;94931.75;5036210;28;20186;-57
2022/06/30 09:06:05;;;;;;;1999.90;999.90;;;;;;;34.95;54.60;94938.94;5035410;28;20193;-58
2022/06/30 09:08:31;;;;;;;1999.90;999.90;;;;;;;35.30;55.25;94920.75;5035627;28;20182;-59
2022/06/30 09:10:57;;;;;;;1999.90;999.90;;;;;;;36.89;50.44;94924.41;5035630;28;20196;-58
2022/06/30 09:13:23;;;;;;;1999.90;999.90;;;;;;;35.14;54.43;94939.22;5035535;28;20179;-59
2022/06/30 09:15:49;;;;;;;1999.90;999.90;;;;;;;34.17;57.34;94934.59;5035618;28;20213;-59
2022/06/30 09:18:22;;;;;;;1999.90;999.90;;;;;;;34.18;59.55;94933.25;5035396;28;20241;-59
2022/06/30 09:20:48;;;;;;;1999.90;999.90;;;;;;;33.89;60.81;94937.69;5051922;28;20182;-64
2022/06/30 09:23:22;;;;;;;1999.90;999.90;;;;;;;32.95;64.28;94932.22;5035925;28;20285;-60
2022/06/30 09:25:49;;;;;;;1999.90;999.90;;;;;;;32.16;70.93;94926.56;5035504;28;20186;-60
2022/06/30 09:28:16;;;;;;;1999.90;999.90;;;;;;;34.19;59.80;94932.69;5035475;28;20285;-60
2022/06/30 09:30:41;;;;;;;1999.90;999.90;;;;;;;34.47;58.15;94937.38;5035355;28;20197;-61
2022/06/30 09:33:08;;;;;;;1999.90;999.90;;;;;;;34.77;55.26;94929.50;5034811;28;20182;-60
2022/06/30 09:35:34;;;;;;;1999.90;999.90;;;;;;;34.78;58.67;94931.03;5035032;28;20196;-60
2022/06/30 09:38:09;;;;;;;1999.90;999.90;;;;;;;35.67;53.69;94931.09;5036419;28;20206;-60
2022/06/30 09:41:04;;;;;;;1999.90;999.90;;;;;;;33.98;61.42;94917.25;5035226;28;20178;-56
2022/06/30 09:43:31;;;;;;;1999.90;999.90;;;;;;;32.77;64.58;94921.97;5035483;28;20534;-60
2022/06/30 09:45:57;;;;;;;1999.90;999.90;;;;;;;32.90;63.71;94919.75;5036239;28;20182;-59
2022/06/30 09:48:30;;;;;;;1999.90;999.90;;;;;;;33.21;64.85;94918.50;5035382;28;20185;-59
2022/06/30 09:51:01;;;;;;;1999.90;999.90;;;;;;;35.19;58.09;94932.53;5035424;28;20190;-60
2022/06/30 09:53:27;;;;;;;1999.90;999.90;;;;;;;35.31;55.54;94925.09;5034984;28;20197;-60
2022/06/30 09:55:52;;;;;;;1999.90;999.90;;;;;;;35.60;53.09;94929.06;5034962;28;20181;-59
2022/06/30 09:58:29;;;;;;;1999.90;999.90;;;;;;;35.35;51.70;94925.44;5034736;28;20213;-46
2022/06/30 10:00:55;;;;;;;1999.90;999.90;;;;;;;35.02;53.84;94923.91;5034865;28;20208;-70
2022/06/30 10:03:21;;;;;;;1999.90;999.90;;;;;;;34.08;54.30;94918.91;5034776;28;20277;-70
2022/06/30 10:05:48;;;;;;;1999.90;999.90;;;;;;;34.24;55.76;94923.25;5035822;28;20232;-70
2022/06/30 10:08:15;;;;;;;1999.90;999.90;;;;;;;34.39;59.23;94922.47;5034746;28;20186;-71
2022/06/30 10:10:42;;;;;;;1999.90;999.90;;;;;;;34.14;54.26;94928.00;5034464;28;20252;-70
2022/06/30 10:13:16;;;;;;;1999.90;999.90;;;;;;;32.65;60.97;94926.44;5034557;28;20264;-70
2022/06/30 10:15:47;;;;;;;1999.90;999.90;;;;;;;34.40;54.78;94919.06;5034979;28;20190;-49
2022/06/30 10:18:13;;;;;;;1999.90;999.90;;;;;;;34.20;55.22;94922.13;5035234;28;20213;-63
2022/06/30 10:20:40;;;;;;;1999.90;999.90;;;;;;;34.13;54.49;94912.31;5034227;28;20193;-59
2022/06/30 10:23:08;;;;;;;1999.90;999.90;;;;;;;35.72;50.39;94907.38;5034428;28;20270;-59
2022/06/30 10:25:35;;;;;;;1999.90;999.90;;;;;;;34.39;50.47;94916.78;5034915;28;20187;-59
2022/06/30 10:28:02;;;;;;;1999.90;999.90;;;;;;;35.02;48.59;94915.41;5034260;28;20193;-59
2022/06/30 10:30:52;;;;;;;1999.90;999.90;;;;;;;34.78;51.15;94907.56;5034452;28;20200;-59
2022/06/30 10:33:26;;;;;;;1999.90;999.90;;;;;;;35.56;48.26;94900.28;5026903;28;20194;-61
2022/06/30 10:36:01;;;;;;;1999.90;999.90;;;;;;;34.93;52.85;94896.91;5034564;28;20195;-56
2022/06/30 10:39:00;;;;;;;1999.90;999.90;;;;;;;33.91;56.46;94892.50;5034780;28;20301;-69
2022/06/30 10:41:25;;;;;;;1999.90;999.90;;;;;;;34.86;51.85;94892.03;5034669;28;20196;-69
2022/06/30 10:44:03;;;;;;;1999.90;999.90;;;;;;;35.95;46.30;94891.66;5034932;28;20273;-69
2022/06/30 10:46:29;;;;;;;1999.90;999.90;;;;;;;35.99;46.23;94885.53;5034209;28;20237;-68
2022/06/30 10:48:55;;;;;;;1999.90;999.90;;;;;;;34.87;49.78;94884.25;5034350;28;20194;-69
2022/06/30 10:51:21;;;;;;;1999.90;999.90;;;;;;;36.42;47.31;94893.44;5034010;28;20183;-69
2022/06/30 10:53:49;;;;;;;1999.90;999.90;;;;;;;35.60;49.95;94877.88;5034058;28;20186;-45
2022/06/30 10:56:14;;;;;;;1999.90;999.90;;;;;;;35.28;50.20;94880.78;5033874;28;20193;-46